x

Buoy E01 - Central Maine Shelf (44032) Wave Buoy

11:04pm - Wed 19th Sep 2018 All times are EDT. -4 hours from GMT.

  • Sig Wave height 3.3ft
  • Peak Period 8s
  • Wind
    16mph, 20mph gusts
  • Sea Temp 59°f
  • Air Temp 58°f
  • Sea Pressure 1018.7mb
  • Buoy E01 - Central Maine Shelf
  • Buoy E01 - Central Maine Shelf

More Historic Weather Station data

Upgrade to MSW Pro to gain access to the past 30 days of data for over 8000 Wavebouys and Weather Stations around the globe.

Join

Comparision Forecast

View Surf forecast
   
Wed 09/19 11:04pm 3.5ft 8s 16 20 mph 1018.7mb 59f 58f
10:04pm 2.5ft 5s 13 16 mph 1018.1mb 59f 59f
9:04pm 3ft 6s 13 16 mph 1017.9mb 59f 59f
8:04pm 3ft 5s 13 16 mph 1017.3mb 60f 59f
7:04pm 2.5ft 4s 11 13 mph 1016.4mb 60f 59f
6:04pm 2.5ft 6s 13 18 mph 1016mb 59f 59f
5:04pm 3.5ft 6s 11 13 mph 1014.7mb 59f 59f
4:04pm 3ft 6s 11 13 mph 1014.6mb 59f 60f
3:04pm 3.5ft 6s 16 18 mph 1014.6mb 59f 59f
2:04pm 3.5ft 6s 16 18 mph 1014.4mb 59f 58f
1:04pm 3.5ft 6s 13 16 mph 1014.6mb 59f 58f
12:04pm 3.5ft 5s 13 18 mph 1014.3mb 59f 58f
11:04am 4ft 6s 18 20 mph 1014mb 59f 57f
10:04am 3.5ft 4s 18 22 mph 1013.4mb 59f 57f
9:04am 3.5ft 5s 18 22 mph 1012.8mb 59f 56f
8:04am 3ft 5s 16 18 mph 1012.2mb 59f 57f
7:04am 2.5ft 5s 16 18 mph 1011.3mb 59f 57f
6:04am 2.5ft 4s 16 25 mph 1010.9mb 59f 57f
5:04am 3.5ft 8s 18 20 mph 1010.5mb 60f 57f
4:04am 3ft 5s 18 20 mph 1009.9mb 60f 58f
3:04am 2.5ft 4s 16 18 mph 1009.1mb 61f 59f
2:04am 3.5ft 6s 18 27 mph 1008.5mb 61f 59f
1:04am 2.5ft 3s 20 25 mph 1008.4mb 61f 60f
12:04am 3.5ft 5s 20 22 mph 1008.1mb 61f 62f
Tue 09/18 11:04pm 3.5ft 6s 2 4 mph 1007.5mb 62f 62f
10:04pm 3ft 5s 4 7 mph 1006.3mb 62f 61f
9:04pm 3ft 5s 2 4 mph 1006.1mb 62f 62f
8:04pm 2.5ft 5s 4 4 mph 1005.6mb 62f 63f
7:04pm 2ft 11s 4 7 mph 1005.1mb 62f 63f
6:04pm 2.5ft 11s 9 9 mph 1004.9mb 62f 63f
5:04pm 2.5ft 11s 2 2 mph 1004.7mb 62f 64f
2:04pm 3ft 11s 2 4 mph 1005.4mb 62f 63f
1:04pm 3ft 11s 7 9 mph 1004.8mb 62f 63f
12:04pm 3.5ft 11s 2 4 mph 1006.3mb 62f 63f
11:04am 3.5ft 11s 9 9 mph 1006.8mb 62f 63f
12:04am 3.5ft 5s 18 20 mph 1011.1mb 59f 64f
Mon 09/17 10:04pm 3.5ft 5s 16 18 mph 1010.9mb 59f 64f
9:04pm 4ft 5s 13 16 mph 1011.7mb 60f 64f
8:04pm 4.5ft 5s 16 18 mph 1011.7mb 60f 65f
7:04pm 4ft 5s 18 20 mph 1011.7mb 60f 65f
5:04pm 3ft 5s 16 20 mph 1012.7mb 61f 65f
4:04pm 4.5ft 11s 11 13 mph 1013.4mb 60f 64f
3:04pm 3ft 5s 13 18 mph 1014.3mb 60f 63f
2:04pm 3ft 5s 11 13 mph 1015.4mb 60f 63f
1:04pm 2.5ft 5s 9 11 mph 1016.5mb 61f 62f
12:04pm 4.5ft 11s 11 11 mph 1017.1mb 61f 62f
11:04am 2ft 4s 11 13 mph 1017.8mb 61f 63f
10:04am 3.5ft 11s 7 7 mph 1018.5mb 61f 62f
9:04am 3.5ft 11s 9 9 mph 1018.8mb 61f 62f
8:04am  -   -  4 7 mph 1019.1mb 61f 61f
7:04am  -   -  9 11 mph 1019.2mb 61f 62f
6:04am 2.5ft 11s 7 9 mph 1019.2mb 61f 62f
4:04am 2.5ft 11s 9 9 mph 1019.5mb 61f 63f
3:04am  -   -  7 9 mph 1020mb 62f 62f
2:04am 3ft 11s 7 7 mph 1020.9mb 62f 62f
1:04am 3.5ft 11s 4 4 mph 1021.3mb 62f 62f
12:04am 3.5ft 11s 4 7 mph 1021.6mb 62f 62f
Sun 09/16 11:04pm 4ft 11s 7 9 mph 1021.8mb 62f 62f
10:04pm 1ft 5s 4 4 mph 1021.8mb 62f 62f
7:04pm 4.5ft 16s 2 2 mph 1021.1mb 62f 63f
6:04pm  -   -   -  2 mph 1020.9mb 61f 66f
5:04pm 3ft 16s 7 7 mph 1020.7mb 62f 65f
4:04pm 3.5ft 11s 7 9 mph 1020.7mb 63f 65f
2:04pm 2.5ft 8s 4 7 mph 1021.3mb 62f 65f
1:04pm 3ft 8s 4 7 mph 1021.5mb 61f 64f
12:04pm  -   -  2 2 mph 1021.4mb 61f 66f
11:04am 2.5ft 8s 2 4 mph 1021.7mb 60f 62f
10:04am  -   -  2 4 mph 1021.6mb 60f 61f
9:04am 3.5ft 11s 7 7 mph 1021.2mb 60f 60f
8:04am  -   -  4 4 mph 1020.9mb 60f 60f
7:04am 1.3ft 5s 7 7 mph 1020.5mb 60f 60f
6:04am 4.5ft 16s 2 2 mph 1020.1mb 60f 59f
5:04am 3ft 16s  -  2 mph 1020mb 60f 59f